createdAt,value
2022-11-28T00:01:48.907Z,26.5
2022-11-28T00:03:53.897Z,29.5
2022-11-28T00:05:56.003Z,32.2
2022-11-28T00:07:58.020Z,25.1
2022-11-28T00:09:59.970Z,21.9
2022-11-28T00:14:03.962Z,21.6
2022-11-28T00:16:05.997Z,20.9
2022-11-28T00:18:10.978Z,18.7
2022-11-28T00:20:12.968Z,22.4
2022-11-28T00:22:16.595Z,18.1
2022-11-28T00:24:33.107Z,21.1
2022-11-28T00:26:35.129Z,23.5
2022-11-28T00:28:37.097Z,19.7
2022-11-28T00:30:42.122Z,18.4
2022-11-28T00:32:44.098Z,26.9
2022-11-28T00:34:46.082Z,20.3
2022-11-28T00:36:48.085Z,18.5
2022-11-28T00:38:50.076Z,24.5
2022-11-28T00:40:52.084Z,18.9
2022-11-28T00:42:54.047Z,29.1
2022-11-28T00:44:59.091Z,25.7
2022-11-28T00:47:01.077Z,29.1
2022-11-28T00:49:03.053Z,26.3
2022-11-28T00:51:05.039Z,19.4
2022-11-28T00:53:07.056Z,20.9
2022-11-28T00:55:09.048Z,14.6
2022-11-28T00:59:16.085Z,17.4
2022-11-28T01:01:18.247Z,30.3
2022-11-28T01:03:20.094Z,19.5
2022-11-28T01:05:22.064Z,18
2022-11-28T01:07:24.108Z,23.6
2022-11-28T01:09:26.044Z,27.7
2022-11-28T01:11:28.033Z,22.6
2022-11-28T01:13:33.186Z,16.2
2022-11-28T01:15:35.189Z,18.9
2022-11-28T01:17:37.239Z,30.6
2022-11-28T01:18:39.791Z,35.7
2022-11-28T01:20:41.770Z,24.8
2022-11-28T01:22:43.745Z,26.1
2022-11-28T01:24:45.750Z,17.2
2022-11-28T01:26:50.767Z,24.2
2022-11-28T01:28:52.754Z,20.2
2022-11-28T01:30:54.773Z,23.4
2022-11-28T01:32:56.742Z,21.1
2022-11-28T01:34:58.739Z,30.3
2022-11-28T01:37:00.714Z,25.3
2022-11-28T01:39:02.695Z,22.4
2022-11-28T01:41:07.819Z,23.9
2022-11-28T01:43:09.819Z,24.5
2022-11-28T01:49:15.787Z,22.3
2022-11-28T01:53:19.746Z,24.9
2022-11-28T01:55:24.785Z,28
2022-11-28T01:57:26.766Z,24.3
2022-11-28T02:01:30.801Z,24
2022-11-28T02:03:32.711Z,28.5
2022-11-28T02:05:34.685Z,29.7
2022-11-28T02:07:36.754Z,23.5
2022-11-28T02:09:41.949Z,26.5
2022-11-28T02:11:44.018Z,34
2022-11-28T02:13:46.002Z,27.3
2022-11-28T02:14:48.532Z,28.8
2022-11-28T02:16:50.481Z,27.7
2022-11-28T02:18:52.482Z,24.8
2022-11-28T02:20:54.453Z,24
2022-11-28T02:22:59.504Z,31.9
2022-11-28T02:25:01.496Z,24.1
2022-11-28T02:27:03.489Z,29.6
2022-11-28T02:29:05.466Z,35.8
2022-11-28T02:31:07.457Z,22.1
2022-11-28T02:33:09.423Z,29.6
2022-11-28T02:35:11.391Z,23
2022-11-28T02:37:16.454Z,32
2022-11-28T02:39:18.430Z,37.1
2022-11-28T02:41:20.440Z,30.2
2022-11-28T02:43:22.433Z,27
2022-11-28T02:45:24.405Z,18.3
2022-11-28T02:47:26.381Z,31.1
2022-11-28T02:49:28.365Z,27.9
2022-11-28T02:51:33.396Z,32.9
2022-11-28T02:53:35.406Z,27.6
2022-11-28T02:55:37.376Z,30.6
2022-11-28T02:57:39.351Z,25.4
2022-11-28T02:59:41.326Z,32.1
2022-11-28T03:01:43.408Z,27.8
2022-11-28T03:03:45.324Z,23.7
2022-11-28T03:05:50.362Z,19
2022-11-28T03:07:52.408Z,16.9
2022-11-28T03:09:54.342Z,18.3
2022-11-28T03:10:56.836Z,34.5
2022-11-28T03:19:07.853Z,25.5
2022-11-28T03:27:15.807Z,18
2022-11-28T03:29:17.784Z,13
2022-11-28T03:31:19.863Z,23.7
2022-11-28T03:33:24.858Z,18.6
2022-11-28T03:35:26.820Z,17.2
2022-11-28T03:41:32.819Z,22
2022-11-28T03:43:34.803Z,19
2022-11-28T03:45:36.792Z,19.9
2022-11-28T03:47:41.811Z,17.4
2022-11-28T03:51:45.796Z,16.7
2022-11-28T03:53:47.819Z,18.9
2022-11-28T03:55:49.921Z,15.5
2022-11-28T03:57:51.820Z,16.6
2022-11-28T04:01:58.883Z,15.5
2022-11-28T04:04:00.865Z,26.9
2022-11-28T04:08:25.591Z,13.1
2022-11-28T04:10:27.596Z,13.2
2022-11-28T04:16:36.636Z,14.9
2022-11-28T04:18:38.565Z,23
2022-11-28T04:20:40.553Z,14.5
2022-11-28T04:22:42.557Z,24.6
2022-11-28T04:24:44.861Z,15.6
2022-11-28T04:26:46.533Z,32.6
2022-11-28T04:28:51.553Z,12.8
2022-11-28T04:30:53.542Z,12.6
2022-11-28T04:32:55.523Z,17.9
2022-11-28T04:34:57.549Z,16.1
2022-11-28T04:36:59.516Z,13.9
2022-11-28T04:39:01.495Z,19.9
2022-11-28T04:41:03.479Z,21.5
2022-11-28T04:43:08.522Z,19
2022-11-28T04:45:10.523Z,23.9
2022-11-28T04:49:14.531Z,21
2022-11-28T04:51:16.603Z,20.3
2022-11-28T04:53:18.584Z,23.7
2022-11-28T04:55:20.550Z,14.8
2022-11-28T04:57:25.609Z,18.4
2022-11-28T04:59:27.614Z,21.6
2022-11-28T05:01:29.658Z,17
2022-11-28T05:06:36.125Z,29
2022-11-28T05:08:38.099Z,24
2022-11-28T05:12:45.128Z,20.9
2022-11-28T05:14:47.127Z,24.5
2022-11-28T05:16:49.252Z,18.9
2022-11-28T05:18:51.104Z,19.5
2022-11-28T05:20:53.094Z,17.4
2022-11-28T05:22:55.077Z,17.3
2022-11-28T05:25:00.131Z,23.7
2022-11-28T05:27:02.107Z,19.8
2022-11-28T05:29:04.115Z,22.5
2022-11-28T05:31:06.265Z,19.5
2022-11-28T05:33:08.192Z,19.5
2022-11-28T05:35:10.189Z,21.1
2022-11-28T05:37:12.159Z,19.1
2022-11-28T05:39:17.213Z,19.7
2022-11-28T05:41:19.210Z,20.9
2022-11-28T05:43:21.188Z,21.2
2022-11-28T05:45:23.260Z,27.2
2022-11-28T05:47:25.166Z,16.9
2022-11-28T05:49:27.175Z,15.7
2022-11-28T05:51:29.157Z,19.7
2022-11-28T05:53:34.215Z,17.6
2022-11-28T05:55:36.216Z,16.6
2022-11-28T05:57:38.172Z,26.4
2022-11-28T05:58:40.692Z,17
2022-11-28T06:00:42.694Z,26.2
2022-11-28T06:04:46.673Z,15.8
2022-11-28T06:06:51.701Z,16.2
2022-11-28T06:08:53.731Z,13.7
2022-11-28T06:10:55.704Z,15.9
2022-11-28T06:12:59.195Z,19.3
2022-11-28T06:15:01.165Z,12.7
2022-11-28T06:19:05.153Z,13
2022-11-28T06:21:10.200Z,13.5
2022-11-28T06:23:12.207Z,13.8
2022-11-28T06:29:18.139Z,14.6
2022-11-28T06:31:20.194Z,12.8
2022-11-28T06:35:27.157Z,14.1
2022-11-28T06:37:29.155Z,13.2
2022-11-28T06:41:33.108Z,13.7
2022-11-28T06:43:35.123Z,10
2022-11-28T06:45:37.147Z,17.7
2022-11-28T06:47:39.084Z,9.2
2022-11-28T06:49:44.475Z,14.1
2022-11-28T06:51:46.113Z,9.9
2022-11-28T06:53:48.101Z,9.7
2022-11-28T06:56:52.645Z,9.3
2022-11-28T07:00:56.706Z,10.7
2022-11-28T07:03:01.664Z,8.7
2022-11-28T07:09:07.592Z,9.4
2022-11-28T07:11:09.600Z,9.7
2022-11-28T07:13:11.571Z,11.7
2022-11-28T07:15:13.567Z,16.6
2022-11-28T07:17:18.624Z,13.9
2022-11-28T07:19:20.589Z,14.5
2022-11-28T07:21:22.592Z,12.5
2022-11-28T07:25:26.618Z,10.4
2022-11-28T07:27:28.575Z,12.7
2022-11-28T07:31:35.645Z,12.3
2022-11-28T07:33:37.588Z,11.5
2022-11-28T07:35:39.599Z,17.4
2022-11-28T07:37:41.592Z,10.7
2022-11-28T07:39:43.982Z,9.8
2022-11-28T07:43:47.543Z,15.1
2022-11-28T07:49:56.585Z,16.1
2022-11-28T07:52:19.308Z,15.4
2022-11-28T07:54:21.274Z,15
2022-11-28T07:56:23.271Z,10.8
2022-11-28T07:58:28.341Z,14.3
2022-11-28T08:00:30.326Z,15.9
2022-11-28T08:02:32.487Z,19.8
2022-11-28T08:06:36.279Z,18
2022-11-28T08:08:38.266Z,18.8
2022-11-28T08:10:40.284Z,17.1
2022-11-28T08:14:47.290Z,20.2
2022-11-28T08:16:49.318Z,17
2022-11-28T08:18:51.323Z,14.3
2022-11-28T08:20:53.290Z,23.2
2022-11-28T08:24:57.268Z,23.8
2022-11-28T08:31:06.333Z,22.3
2022-11-28T08:33:08.273Z,23.3
2022-11-28T08:35:10.270Z,22.2
2022-11-28T08:37:12.256Z,21
2022-11-28T08:39:24.089Z,20.1
2022-11-28T08:41:19.258Z,24.9
2022-11-28T08:43:21.262Z,17
2022-11-28T08:45:23.263Z,21.6
2022-11-28T08:46:25.876Z,22.5
2022-11-28T08:48:27.766Z,21.5
2022-11-28T08:50:29.758Z,23.2
2022-11-28T08:54:36.825Z,27
2022-11-28T08:56:38.791Z,20.8
2022-11-28T08:58:40.776Z,17.5
2022-11-28T09:04:46.733Z,24.1
2022-11-28T09:06:48.835Z,21.5
2022-11-28T09:12:57.755Z,32.1
2022-11-28T09:14:59.764Z,21.4
2022-11-28T09:29:16.772Z,19.9
2022-11-28T09:31:18.867Z,23.4
2022-11-28T09:33:20.768Z,27.9
2022-11-28T09:35:22.784Z,21
2022-11-28T09:37:27.818Z,23.3
2022-11-28T09:39:39.521Z,21
2022-11-28T09:41:31.811Z,26.5
2022-11-28T09:42:34.301Z,27
2022-11-28T09:44:36.301Z,28.2
2022-11-28T09:46:38.454Z,26.4
2022-11-28T09:48:40.318Z,21.7
2022-11-28T09:50:45.358Z,25.4
2022-11-28T09:52:47.453Z,24.9
2022-11-28T09:54:49.323Z,28.6
2022-11-28T09:56:51.334Z,29.7
2022-11-28T09:58:53.322Z,24.6
2022-11-28T10:00:55.668Z,22.7
2022-11-28T10:02:57.283Z,26.1
2022-11-28T10:05:02.421Z,28.8
2022-11-28T10:07:04.331Z,19.1
2022-11-28T10:09:06.341Z,26.4
2022-11-28T10:11:08.316Z,28
2022-11-28T10:13:10.329Z,17.5
2022-11-28T10:15:12.294Z,27.1
2022-11-28T10:17:14.324Z,19.7
2022-11-28T10:21:21.333Z,14.7
2022-11-28T10:23:23.311Z,28.2
2022-11-28T10:25:25.323Z,20.9
2022-11-28T10:27:27.429Z,18.8
2022-11-28T10:29:29.298Z,25.8
2022-11-28T10:31:31.279Z,16.8
2022-11-28T10:33:36.348Z,18.3
2022-11-28T10:35:38.326Z,17.3
2022-11-28T10:37:40.351Z,19.7
2022-11-28T10:38:42.843Z,21.8
2022-11-28T10:40:44.850Z,18.1
2022-11-28T10:42:46.907Z,24.5
2022-11-28T10:44:48.835Z,15.9
2022-11-28T10:46:53.881Z,15
2022-11-28T10:48:55.870Z,29.9
2022-11-28T10:50:57.868Z,20.9
2022-11-28T10:52:59.859Z,12
2022-11-28T10:55:01.879Z,13
2022-11-28T10:57:03.846Z,17
2022-11-28T10:59:05.850Z,15.6
2022-11-28T11:01:10.935Z,18.7
2022-11-28T11:03:12.850Z,15.5
2022-11-28T11:09:18.854Z,13.8
2022-11-28T11:17:34.376Z,16.6
2022-11-28T11:19:31.898Z,20.1
2022-11-28T11:25:37.861Z,16.7
2022-11-28T11:27:39.867Z,20.2
2022-11-28T11:31:46.892Z,19.5
2022-11-28T11:36:11.512Z,21.8
2022-11-28T11:38:13.522Z,20.7
2022-11-28T11:40:15.510Z,23.1
2022-11-28T11:42:20.547Z,21.8
2022-11-28T11:44:22.526Z,25
2022-11-28T11:46:24.569Z,22.6
2022-11-28T11:48:26.525Z,26.1
2022-11-28T11:50:28.529Z,32.5
2022-11-28T11:52:30.513Z,24.5
2022-11-28T11:54:32.509Z,33.9
2022-11-28T11:56:37.602Z,28.8
2022-11-28T11:58:39.557Z,26.4
2022-11-28T12:00:41.701Z,29.9
2022-11-28T12:02:43.626Z,34.4
2022-11-28T12:04:51.078Z,39
2022-11-28T12:06:49.020Z,40.3
2022-11-28T12:08:51.017Z,35.4
2022-11-28T12:10:56.079Z,41.6
2022-11-28T12:12:58.091Z,32.7
2022-11-28T12:15:00.116Z,38.2
2022-11-28T12:17:14.300Z,38.3
2022-11-28T12:19:04.064Z,39
2022-11-28T12:21:06.074Z,41.5
2022-11-28T12:25:13.153Z,45
2022-11-28T12:27:15.133Z,33.7
2022-11-28T12:30:19.630Z,45
2022-11-28T12:32:21.638Z,51.1
2022-11-28T12:34:23.668Z,51.7
2022-11-28T12:36:25.672Z,40.1
2022-11-28T12:38:30.722Z,53.1
2022-11-28T12:40:32.744Z,46.8
2022-11-28T12:42:34.710Z,46.3
2022-11-28T12:44:36.745Z,49
2022-11-28T12:46:38.817Z,44.3
2022-11-28T12:48:40.741Z,46.1
2022-11-28T12:50:42.866Z,45.8
2022-11-28T12:52:48.291Z,50.6
2022-11-28T12:54:50.252Z,52.4
2022-11-28T12:56:52.276Z,53.5
2022-11-28T12:58:54.258Z,55.1
2022-11-28T13:00:56.271Z,60
2022-11-28T13:02:58.310Z,54.4
2022-11-28T13:05:00.251Z,47.3
2022-11-28T13:07:05.290Z,54.7
2022-11-28T13:09:07.322Z,48.4
2022-11-28T13:11:09.304Z,41.2
2022-11-28T13:13:11.317Z,53.7
2022-11-28T13:15:13.319Z,55.7
2022-11-28T13:17:15.319Z,47.3
2022-11-28T13:19:17.309Z,60.5
2022-11-28T13:21:22.375Z,53
2022-11-28T13:25:26.381Z,51.6
2022-11-28T13:26:28.885Z,64.8
2022-11-28T13:28:30.883Z,50.8
2022-11-28T13:30:32.897Z,47.2
2022-11-28T13:32:34.910Z,57.6
2022-11-28T13:34:39.937Z,48.3
2022-11-28T13:38:50.607Z,58.1
2022-11-28T13:40:46.113Z,55.5
2022-11-28T13:43:03.303Z,45.2
2022-11-28T13:44:49.941Z,45.1
2022-11-28T13:46:51.980Z,52
2022-11-28T13:49:13.767Z,54.3
2022-11-28T13:50:58.975Z,47.7
2022-11-28T14:15:26.032Z,42.7
2022-11-28T14:17:31.118Z,56.1
2022-11-28T14:19:33.098Z,39.5
2022-11-28T14:21:35.114Z,39.5
2022-11-28T14:22:37.622Z,51.3
2022-11-28T14:26:41.594Z,42.1
2022-11-28T14:30:48.692Z,46.4
2022-11-28T14:32:50.686Z,52.9
2022-11-28T14:36:54.663Z,47.6
2022-11-28T14:38:56.651Z,58.2
2022-11-28T14:51:11.713Z,54.8
2022-11-28T14:57:17.751Z,48.5
2022-11-28T15:03:26.839Z,66
2022-11-28T15:05:28.771Z,57.4
2022-11-28T15:07:30.811Z,71.1
2022-11-28T15:09:32.779Z,58.4
2022-11-28T15:11:34.746Z,59.5
2022-11-28T15:13:39.822Z,60.3
2022-11-28T15:15:41.825Z,63
2022-11-28T15:17:43.801Z,67.3
2022-11-28T15:20:00.418Z,75.7
2022-11-28T15:26:09.470Z,69.1
2022-11-28T15:32:15.491Z,88
2022-11-28T15:34:17.482Z,92.3
2022-11-28T15:40:26.529Z,105.3
2022-11-28T15:44:30.511Z,104.2
2022-11-28T15:50:36.522Z,100.8
2022-11-28T15:56:45.563Z,109
2022-11-28T16:02:51.598Z,114.3
2022-11-28T16:04:53.567Z,124.7
2022-11-28T16:09:00.621Z,150.4
2022-11-28T16:11:02.618Z,158.9
2022-11-28T16:14:07.140Z,87
2022-11-28T16:16:09.267Z,89.6
2022-11-28T16:18:11.180Z,103.1
2022-11-28T16:22:18.239Z,99.9
2022-11-28T16:24:20.236Z,109.8
2022-11-28T16:26:22.239Z,89.8
2022-11-28T16:28:24.229Z,87.3
2022-11-28T16:30:26.249Z,70.2
2022-11-28T16:32:28.231Z,86.1
2022-11-28T16:34:30.233Z,96.5
2022-11-28T16:36:35.297Z,103.3
2022-11-28T16:38:37.306Z,90.7
2022-11-28T16:40:39.305Z,98.9
2022-11-28T16:42:41.292Z,99.1
2022-11-28T16:44:43.305Z,104.1
2022-11-28T16:46:45.295Z,92.4
2022-11-28T16:48:47.297Z,99.8
2022-11-28T16:50:52.431Z,101.5
2022-11-28T16:52:54.373Z,108.9
2022-11-28T16:54:56.335Z,97.5
2022-11-28T16:56:58.331Z,103.1
2022-11-28T16:59:00.358Z,103.8
2022-11-28T17:01:02.462Z,105.1
2022-11-28T17:03:04.333Z,122
2022-11-28T17:07:11.411Z,108.1
2022-11-28T17:09:14.850Z,108.1
2022-11-28T17:10:15.905Z,121.7
2022-11-28T17:12:17.922Z,119.3
2022-11-28T17:14:19.923Z,111.4
2022-11-28T17:16:21.981Z,110.1
2022-11-28T17:18:26.994Z,131.7
2022-11-28T17:20:29.002Z,140.7
2022-11-28T17:22:33.826Z,111.2
2022-11-28T17:24:50.363Z,133.5
2022-11-28T17:26:34.998Z,108
2022-11-28T17:29:18.765Z,129.5
2022-11-28T17:30:38.972Z,124.5
2022-11-28T17:34:46.402Z,125.9
2022-11-28T17:36:53.408Z,125.4
2022-11-28T17:38:50.064Z,131.1
2022-11-28T17:40:52.042Z,125
2022-11-28T17:42:54.040Z,125.6
2022-11-28T17:44:56.080Z,146.5
2022-11-28T17:47:01.132Z,157.7
2022-11-28T17:49:04.050Z,151.3
2022-11-28T17:51:05.108Z,153.8
2022-11-28T17:53:07.125Z,129.8
2022-11-28T17:55:09.116Z,136.6
2022-11-28T17:57:20.393Z,152.8
2022-11-28T17:59:14.629Z,147.2
2022-11-28T18:01:19.736Z,140.6
2022-11-28T18:03:21.677Z,153.6
2022-11-28T18:05:26.364Z,143.6
2022-11-28T18:06:26.232Z,167.6
2022-11-28T18:08:28.230Z,175.9
2022-11-28T18:10:30.230Z,127.9
2022-11-28T18:14:46.551Z,178
2022-11-28T18:16:39.177Z,170.6
2022-11-28T18:18:41.160Z,152.4
2022-11-28T18:20:43.329Z,166.3
2022-11-28T18:22:45.149Z,174.3
2022-11-28T18:24:47.138Z,182.2
2022-11-28T18:26:49.164Z,159.8
2022-11-28T18:30:56.223Z,193.1
2022-11-28T18:32:58.214Z,174.1
2022-11-28T18:35:00.216Z,143.4
2022-11-28T18:37:02.215Z,143.7
2022-11-28T18:39:04.222Z,189.7
2022-11-28T18:41:06.202Z,187.7
2022-11-28T18:43:11.270Z,177.9
2022-11-28T18:45:13.274Z,170.6
2022-11-28T18:47:15.272Z,172
2022-11-28T18:49:17.254Z,150.3
2022-11-28T18:51:19.254Z,186
2022-11-28T18:53:21.337Z,217.5
2022-11-28T18:55:23.276Z,169
2022-11-28T18:57:28.329Z,186
2022-11-28T18:59:30.298Z,166.5
2022-11-28T19:01:32.381Z,183.4
2022-11-28T19:05:57.001Z,193.5
2022-11-28T19:07:59.058Z,188.8
2022-11-28T19:12:06.053Z,201.1
2022-11-28T19:14:08.055Z,223.2
2022-11-28T19:16:10.130Z,204.2
2022-11-28T19:18:12.027Z,173.6
2022-11-28T19:22:16.019Z,178.6
2022-11-28T19:24:21.092Z,180.9
2022-11-28T19:26:23.098Z,194
2022-11-28T19:28:25.053Z,177.2
2022-11-28T19:30:27.063Z,210.6
2022-11-28T19:32:29.041Z,207.7
2022-11-28T19:34:31.061Z,191.6
2022-11-28T19:36:33.053Z,166.7
2022-11-28T19:38:38.109Z,183.9
2022-11-28T19:40:40.139Z,204.3
2022-11-28T19:42:42.082Z,199
2022-11-28T19:46:46.067Z,213.9
2022-11-28T19:48:48.064Z,202.5
2022-11-28T19:50:50.040Z,197.1
2022-11-28T19:52:55.109Z,218.6
2022-11-28T19:54:57.128Z,251.1
2022-11-28T19:56:59.061Z,205.1
2022-11-28T19:58:01.562Z,234.4
2022-11-28T20:00:03.580Z,209.8
2022-11-28T20:06:12.568Z,226.6
2022-11-28T20:10:16.530Z,187.7
2022-11-28T20:12:18.528Z,209.1
2022-11-28T20:14:20.490Z,222.7
2022-11-28T20:16:22.505Z,244.8
2022-11-28T20:18:24.459Z,241.6
2022-11-28T20:20:29.515Z,274.7
2022-11-28T20:22:31.511Z,292.6
2022-11-28T20:24:33.475Z,264.4
2022-11-28T20:26:35.453Z,258.1
2022-11-28T20:28:37.435Z,263.5
2022-11-28T20:30:39.417Z,309.3
2022-11-28T20:34:46.451Z,302.2
2022-11-28T20:36:48.432Z,303.1
2022-11-28T20:38:50.407Z,285
2022-11-28T20:40:52.393Z,279.1
2022-11-28T20:42:54.363Z,335.1
2022-11-28T20:44:56.350Z,309.3
2022-11-28T20:46:58.352Z,288.3
2022-11-28T20:49:03.258Z,353.8
2022-11-28T20:51:05.218Z,310.2
2022-11-28T20:53:07.204Z,304.4
2022-11-28T20:54:09.722Z,340.2
2022-11-28T20:56:11.705Z,332
2022-11-28T20:58:13.716Z,328.5
2022-11-28T21:00:15.702Z,369
2022-11-28T21:02:20.779Z,338.2
2022-11-28T21:04:22.725Z,344.4
2022-11-28T21:06:24.712Z,330.4
2022-11-28T21:08:26.726Z,298.3
2022-11-28T21:10:28.703Z,300
2022-11-28T21:12:30.683Z,301.9
2022-11-28T21:14:32.672Z,291.8
2022-11-28T21:16:37.797Z,296.7
2022-11-28T21:18:39.723Z,291.5
2022-11-28T21:20:41.705Z,301.7
2022-11-28T21:22:43.699Z,300
2022-11-28T21:24:45.683Z,260.8
2022-11-28T21:26:52.857Z,292
2022-11-28T21:28:49.688Z,241.9
2022-11-28T21:30:54.728Z,261.4
2022-11-28T21:32:56.703Z,250.3
2022-11-28T21:35:04.168Z,240.1
2022-11-28T21:37:00.701Z,227.6
2022-11-28T21:39:02.683Z,239.3
2022-11-28T21:41:04.679Z,306.1
2022-11-28T21:43:06.668Z,243.8
2022-11-28T21:45:11.759Z,297.5
2022-11-28T21:47:13.686Z,289.5
2022-11-28T21:49:15.708Z,245.8
2022-11-28T21:50:18.231Z,246.7
2022-11-28T21:58:29.258Z,260.3
2022-11-28T22:00:52.152Z,254.5
2022-11-28T22:04:35.260Z,224.1
2022-11-28T22:06:37.277Z,266
2022-11-28T22:08:39.232Z,229.2
2022-11-28T22:10:41.237Z,234.6
2022-11-28T22:14:48.499Z,233.2
2022-11-28T22:16:50.289Z,270.3
2022-11-28T22:18:52.264Z,219.7
2022-11-28T22:20:54.274Z,203.9
2022-11-28T22:22:56.257Z,184.6
2022-11-28T22:24:58.249Z,185
2022-11-28T22:27:03.323Z,198.2
2022-11-28T22:29:05.334Z,220.7
2022-11-28T22:31:07.287Z,188
2022-11-28T22:33:09.279Z,221
2022-11-28T22:35:11.262Z,198.5
2022-11-28T22:37:13.267Z,207.1
2022-11-28T22:41:26.451Z,217.1
2022-11-28T22:43:22.318Z,185.9
2022-11-28T22:47:47.209Z,244.5
2022-11-28T22:49:49.191Z,207.3
2022-11-28T22:51:51.189Z,200.1
2022-11-28T22:53:56.223Z,234.8
2022-11-28T22:55:58.203Z,209.6
2022-11-28T22:58:00.230Z,191.7
2022-11-28T23:00:02.335Z,197.1
2022-11-28T23:06:08.171Z,217.5
2022-11-28T23:08:13.240Z,211.8
2022-11-28T23:10:15.239Z,193.5
2022-11-28T23:12:17.214Z,290
2022-11-28T23:14:19.241Z,209.5
2022-11-28T23:16:21.246Z,174.8
2022-11-28T23:18:23.197Z,193.8
2022-11-28T23:20:25.194Z,172.4
2022-11-28T23:22:30.273Z,172.2
2022-11-28T23:24:32.282Z,206.2
2022-11-28T23:26:34.257Z,179.1
2022-11-28T23:28:36.245Z,266.2
2022-11-28T23:30:38.275Z,216.1
2022-11-28T23:32:40.229Z,264.6
2022-11-28T23:34:42.695Z,201.7
2022-11-28T23:36:47.315Z,342.3
2022-11-28T23:38:49.292Z,214.7
2022-11-28T23:40:51.280Z,249.6
2022-11-28T23:41:53.793Z,212.9
2022-11-28T23:43:55.806Z,229.8
2022-11-28T23:45:57.822Z,224.9
2022-11-28T23:48:00.261Z,265
2022-11-28T23:50:05.381Z,194.4
2022-11-28T23:52:07.374Z,201.9
2022-11-28T23:54:09.361Z,214
2022-11-28T23:56:11.347Z,194.2
2022-11-28T23:58:13.335Z,188
